Terespol, Poland

2:58 PM CET on December 22, 2014 (GMT +0100)
Brest | Change Station
CLOSE
Current Station
Airport
Location: Brest,
Elevation: 469 ft
Nearby Weather Stations
Active Advisory: Wind english:

Elev 469 ft 52.11 °N, 23.90 °E | Updated 28 minutes ago

Light Rain Showers
Light Showers Rain
43 °F
Feels Like 36 °F
N
13
Wind Variable Wind from West
Gusts 20 mph

Today
High -- | Low -- °F
--% Chance of Precip.
Yesterday
High -- | Low -- °F
Precip. -- in
7:32 AM 3:15 PM
New Moon, 0% visible
Pressure 29.56 in
Visibility 4.3 miles
Clouds Overcast 900 ft
Windchill 36 °F
Dew Point 43 °F
Humidity 100%
Rainfall 0.00 in
Snow Depth Not available.
UV 0 out of 12
Pollen Not available.
Air Quality Not available.
Flu Activity Not available.
METAR UMBB 221330Z 26006G09MPS 7000 -SHRA OVC009CB 06/06 Q1001 R29/290050 NOSIG

More Conditions Fewer Conditions

Pressure 29.56 in
Visibility 4.3 miles
Clouds Overcast 900 ft
Windchill 36 °F
Dew Point 43 °F
Humidity 100%
Rainfall 0.00 in
Snow Depth Not available.
UV 0 out of 12
Pollen Not available.
Air Quality Not available.
Flu Activity Not available.
METAR UMBB 221330Z 26006G09MPS 7000 -SHRA OVC009CB 06/06 Q1001 R29/290050 NOSIG

More Conditions Fewer Conditions

10-Day Weather Forecast

Almanac

Astronomy

Dec. 22, 2014 Rise Set
Actual Time
Civil Twilight
Nautical Twilight
Astronomical Twilight
Moon
Length of Visible Light
Length of Day
Tomorrow will be .
, % of the Moon is Illuminated

Today's Extremes

Country Highs Country Lows

Community

WunderPhotos

Upload Photos

1,779,599 photos uploaded!

WunderBlogs® & News

Nearby

Air Quality

  Air Quality AQ Index Pollutant
Not available.

Snow Depth

Station Depth Elevation

Earthquake Activity

City Distance Mag. Time & Date
Minimum magnitude displayed is 2.5.

Coastal Water Temperatures

Place Temperature

Nearby Weather Stations